createdAt,value
2022-12-08T00:01:27.475Z,1.80
2022-12-08T00:03:55.545Z,1.70
2022-12-08T00:06:45.297Z,1.70
2022-12-08T00:09:30.001Z,1.70
2022-12-08T00:12:08.201Z,1.70
2022-12-08T00:14:38.903Z,1.60
2022-12-08T00:17:08.602Z,1.70
2022-12-08T00:19:36.808Z,1.60
2022-12-08T00:22:04.201Z,1.60
2022-12-08T00:24:34.111Z,1.60
2022-12-08T00:27:02.122Z,1.60
2022-12-08T00:29:29.631Z,1.60
2022-12-08T00:35:00.297Z,1.60
2022-12-08T00:37:27.639Z,1.60
2022-12-08T00:39:54.884Z,1.50
2022-12-08T00:45:07.205Z,1.50
2022-12-08T00:47:34.396Z,1.50
2022-12-08T00:50:02.212Z,1.50
2022-12-08T00:52:29.698Z,1.60
2022-12-08T00:54:56.893Z,1.60
2022-12-08T00:57:24.032Z,1.50
2022-12-08T00:59:51.201Z,1.50
2022-12-08T01:02:18.423Z,1.50
2022-12-08T01:04:45.641Z,1.50
2022-12-08T01:07:13.122Z,1.50
2022-12-08T01:09:40.332Z,1.50
2022-12-08T01:12:08.242Z,1.50
2022-12-08T01:14:36.561Z,1.50
2022-12-08T01:17:04.067Z,1.50
2022-12-08T01:19:31.393Z,1.50
2022-12-08T01:21:58.522Z,1.50
2022-12-08T01:24:25.791Z,1.60
2022-12-08T01:26:52.922Z,1.50
2022-12-08T01:29:20.207Z,1.60
2022-12-08T01:31:47.442Z,1.60
2022-12-08T01:34:14.612Z,1.60
2022-12-08T01:36:42.354Z,1.50
2022-12-08T01:39:15.342Z,1.50
2022-12-08T01:41:43.961Z,1.50
2022-12-08T01:44:11.060Z,1.50
2022-12-08T01:46:43.807Z,1.50
2022-12-08T01:49:15.783Z,1.50
2022-12-08T01:52:04.981Z,1.50
2022-12-08T01:54:40.071Z,1.40
2022-12-08T01:57:17.761Z,1.40
2022-12-08T02:00:07.585Z,1.30
2022-12-08T02:02:57.841Z,1.40
2022-12-08T02:05:31.341Z,1.30
2022-12-08T02:08:00.413Z,1.30
2022-12-08T02:10:30.212Z,1.30
2022-12-08T02:12:58.811Z,1.30
2022-12-08T02:15:49.294Z,1.20
2022-12-08T02:18:34.921Z,1.30
2022-12-08T02:21:14.143Z,1.20
2022-12-08T02:24:15.042Z,1.20
2022-12-08T02:27:09.362Z,1.20
2022-12-08T02:29:48.431Z,1.20
2022-12-08T02:32:30.661Z,1.20
2022-12-08T02:34:59.222Z,1.10
2022-12-08T02:37:57.881Z,1.20
2022-12-08T02:40:34.004Z,1.10
2022-12-08T02:43:08.611Z,1.10
2022-12-08T02:45:55.560Z,1.10
2022-12-08T02:48:22.911Z,1.20
2022-12-08T02:50:50.072Z,1.20
2022-12-08T02:53:17.331Z,1.10
2022-12-08T02:55:53.798Z,1.10
2022-12-08T02:58:38.387Z,1.10
2022-12-08T03:01:43.326Z,1.10
2022-12-08T03:04:16.979Z,1.10
2022-12-08T03:07:06.491Z,1.10
2022-12-08T03:09:46.304Z,1.00
2022-12-08T03:12:25.841Z,1.00
2022-12-08T03:14:59.442Z,1.00
2022-12-08T03:17:31.231Z,1.00
2022-12-08T03:20:04.474Z,1.00
2022-12-08T03:22:33.053Z,1.00
2022-12-08T03:25:01.087Z,0.90
2022-12-08T03:27:31.005Z,1.00
2022-12-08T03:29:59.893Z,1.00
2022-12-08T03:32:40.851Z,0.90
2022-12-08T03:35:15.995Z,1.00
2022-12-08T03:37:43.353Z,1.00
2022-12-08T03:40:13.802Z,1.00
2022-12-08T03:42:41.351Z,1.00
2022-12-08T03:45:09.338Z,0.90
2022-12-08T03:47:36.913Z,0.90
2022-12-08T03:50:05.259Z,0.90
2022-12-08T03:52:32.672Z,0.90
2022-12-08T03:54:59.884Z,0.90
2022-12-08T03:57:27.104Z,0.80
2022-12-08T03:59:54.252Z,0.80
2022-12-08T04:02:21.584Z,0.80
2022-12-08T04:04:49.076Z,0.80
2022-12-08T04:07:16.293Z,0.80
2022-12-08T04:09:44.994Z,0.80
2022-12-08T04:12:12.265Z,0.80
2022-12-08T04:14:39.493Z,0.80
2022-12-08T04:17:06.683Z,0.80
2022-12-08T04:19:33.903Z,0.80
2022-12-08T04:22:01.133Z,0.80
2022-12-08T04:24:28.383Z,0.70
2022-12-08T04:26:55.593Z,0.80
2022-12-08T04:29:22.774Z,0.80
2022-12-08T04:31:50.200Z,0.80
2022-12-08T04:34:17.509Z,0.80
2022-12-08T04:36:44.783Z,0.70
2022-12-08T04:39:11.993Z,0.70
2022-12-08T04:41:39.225Z,0.70
2022-12-08T04:44:06.383Z,0.70
2022-12-08T04:46:34.050Z,0.70
2022-12-08T04:49:01.772Z,0.70
2022-12-08T04:51:29.063Z,0.70
2022-12-08T04:53:56.195Z,0.70
2022-12-08T04:56:23.863Z,0.70
2022-12-08T04:58:51.094Z,0.70
2022-12-08T05:01:18.478Z,0.70
2022-12-08T05:03:45.714Z,0.70
2022-12-08T05:06:14.693Z,0.80
2022-12-08T05:08:43.224Z,0.80
2022-12-08T05:11:12.314Z,0.70
2022-12-08T05:13:39.534Z,0.80
2022-12-08T05:16:16.813Z,0.70
2022-12-08T05:18:44.565Z,0.70
2022-12-08T05:21:11.835Z,0.70
2022-12-08T05:23:39.204Z,0.70
2022-12-08T05:26:06.656Z,0.70
2022-12-08T05:28:42.605Z,0.70
2022-12-08T05:31:14.927Z,0.70
2022-12-08T05:33:42.363Z,0.70
2022-12-08T05:36:12.035Z,0.70
2022-12-08T05:38:39.795Z,0.70
2022-12-08T05:41:13.485Z,0.70
2022-12-08T05:43:40.884Z,0.70
2022-12-08T05:46:09.368Z,0.80
2022-12-08T05:48:37.213Z,0.80
2022-12-08T05:51:04.812Z,0.70
2022-12-08T05:53:32.209Z,0.70
2022-12-08T05:55:59.414Z,0.70
2022-12-08T05:58:26.673Z,0.80
2022-12-08T06:00:53.886Z,0.80
2022-12-08T06:03:21.174Z,0.70
2022-12-08T06:05:48.615Z,0.70
2022-12-08T06:08:15.977Z,0.80
2022-12-08T06:10:45.014Z,0.80
2022-12-08T06:13:12.383Z,0.70
2022-12-08T06:15:40.175Z,0.70
2022-12-08T06:20:49.155Z,0.80
2022-12-08T06:23:16.413Z,0.80
2022-12-08T06:25:43.663Z,0.80
2022-12-08T06:28:10.863Z,0.70
2022-12-08T06:30:38.283Z,0.70
2022-12-08T06:33:05.444Z,0.80
2022-12-08T06:35:32.736Z,0.80
2022-12-08T06:38:00.024Z,0.80
2022-12-08T06:40:27.233Z,0.80
2022-12-08T06:42:54.404Z,0.80
2022-12-08T06:45:21.596Z,0.70
2022-12-08T06:47:48.823Z,0.80
2022-12-08T06:50:16.207Z,0.70
2022-12-08T06:52:54.375Z,0.70
2022-12-08T06:55:57.493Z,0.70
2022-12-08T06:58:14.174Z,0.80
2022-12-08T07:00:42.155Z,0.80
2022-12-08T07:03:11.495Z,0.80
2022-12-08T07:05:39.513Z,0.80
2022-12-08T07:08:08.885Z,0.80
2022-12-08T07:10:36.763Z,0.80
2022-12-08T07:15:45.564Z,0.80
2022-12-08T07:18:12.824Z,0.80
2022-12-08T07:20:40.519Z,0.80
2022-12-08T07:23:07.783Z,0.80
2022-12-08T07:25:35.073Z,0.80
2022-12-08T07:28:07.284Z,0.80
2022-12-08T07:30:34.553Z,0.90
2022-12-08T07:33:03.275Z,0.90
2022-12-08T07:35:30.713Z,1.00
2022-12-08T07:37:58.005Z,1.00
2022-12-08T07:40:25.173Z,1.00
2022-12-08T07:42:52.360Z,1.00
2022-12-08T07:45:19.655Z,1.00
2022-12-08T07:47:46.825Z,1.00
2022-12-08T07:50:14.052Z,1.00
2022-12-08T07:52:42.680Z,1.00
2022-12-08T07:55:10.455Z,1.00
2022-12-08T07:57:37.738Z,1.10
2022-12-08T08:00:06.263Z,1.10
2022-12-08T08:02:39.009Z,1.10
2022-12-08T08:05:07.171Z,1.10
2022-12-08T08:07:34.816Z,1.10
2022-12-08T08:10:02.555Z,1.10
2022-12-08T08:12:31.627Z,1.20
2022-12-08T08:15:02.285Z,1.20
2022-12-08T08:20:12.747Z,1.20
2022-12-08T08:22:39.924Z,1.20
2022-12-08T08:25:07.526Z,1.20
2022-12-08T08:27:34.765Z,1.20
2022-12-08T08:30:02.726Z,1.20
2022-12-08T08:32:34.064Z,1.20
2022-12-08T08:35:02.214Z,1.10
2022-12-08T08:37:29.604Z,1.20
2022-12-08T08:39:56.964Z,1.20
2022-12-08T08:42:24.210Z,1.20
2022-12-08T08:44:51.424Z,1.30
2022-12-08T08:47:18.594Z,1.30
2022-12-08T08:49:46.905Z,1.40
2022-12-08T08:52:14.075Z,1.40
2022-12-08T08:54:42.266Z,1.50
2022-12-08T08:57:09.715Z,1.50
2022-12-08T08:59:36.945Z,1.60
2022-12-08T09:04:45.612Z,1.70
2022-12-08T09:07:13.684Z,1.70
2022-12-08T09:09:41.076Z,1.70
2022-12-08T09:12:09.125Z,1.60
2022-12-08T09:14:36.444Z,1.60
2022-12-08T09:17:03.905Z,1.60
2022-12-08T09:19:31.204Z,1.50
2022-12-08T09:21:58.405Z,1.60
2022-12-08T09:24:27.804Z,1.60
2022-12-08T09:26:55.185Z,1.60
2022-12-08T09:29:22.436Z,1.60
2022-12-08T09:31:49.673Z,1.70
2022-12-08T09:34:17.156Z,1.70
2022-12-08T09:36:44.529Z,1.80
2022-12-08T09:39:12.127Z,1.80
2022-12-08T09:42:07.217Z,1.90
2022-12-08T09:45:05.798Z,2.00
2022-12-08T09:47:39.748Z,2.00
2022-12-08T09:50:11.561Z,2.00
2022-12-08T09:52:45.538Z,2.00
2022-12-08T09:55:36.647Z,2.10
2022-12-08T09:58:09.958Z,2.20
2022-12-08T10:00:38.217Z,2.20
2022-12-08T10:03:11.223Z,2.20
2022-12-08T10:05:50.098Z,2.10
2022-12-08T10:08:21.571Z,2.10
2022-12-08T10:11:04.936Z,2.10
2022-12-08T10:13:46.494Z,2.10
2022-12-08T10:16:30.136Z,2.20
2022-12-08T10:19:22.518Z,2.20
2022-12-08T10:21:50.467Z,2.20
2022-12-08T10:24:37.636Z,2.20
2022-12-08T10:27:10.389Z,2.10
2022-12-08T10:29:37.987Z,2.10
2022-12-08T10:32:18.109Z,2.10
2022-12-08T10:35:01.202Z,2.10
2022-12-08T10:37:28.715Z,2.30
2022-12-08T10:40:10.207Z,2.40
2022-12-08T10:42:49.067Z,2.50
2022-12-08T10:45:48.660Z,2.60
2022-12-08T10:48:34.349Z,2.60
2022-12-08T10:51:05.378Z,2.70
2022-12-08T10:53:34.587Z,2.90
2022-12-08T10:56:05.051Z,3.10
2022-12-08T10:58:44.517Z,3.30
2022-12-08T11:01:22.465Z,3.50
2022-12-08T11:03:51.542Z,3.70
2022-12-08T11:06:46.007Z,3.90
2022-12-08T11:09:16.092Z,4.10
2022-12-08T11:11:57.026Z,4.20
2022-12-08T11:14:31.822Z,4.30
2022-12-08T11:17:13.162Z,4.20
2022-12-08T11:19:43.777Z,4.00
2022-12-08T11:22:34.467Z,3.90
2022-12-08T11:25:08.066Z,4.00
2022-12-08T11:27:37.978Z,4.10
2022-12-08T11:30:20.523Z,4.10
2022-12-08T11:33:01.658Z,4.10
2022-12-08T11:35:36.666Z,4.00
2022-12-08T11:38:21.023Z,4.00
2022-12-08T11:40:53.488Z,4.00
2022-12-08T11:43:35.918Z,3.90
2022-12-08T11:46:25.320Z,3.80
2022-12-08T11:49:06.660Z,3.80
2022-12-08T11:51:51.329Z,3.70
2022-12-08T11:54:24.518Z,3.70
2022-12-08T11:56:57.741Z,3.60
2022-12-08T11:59:39.827Z,3.50
2022-12-08T12:02:17.353Z,3.50
2022-12-08T12:05:03.139Z,3.50
2022-12-08T12:07:51.603Z,3.50
2022-12-08T12:10:28.397Z,3.50
2022-12-08T12:13:33.166Z,3.50
2022-12-08T12:16:26.913Z,3.50
2022-12-08T12:18:59.285Z,3.50
2022-12-08T12:21:32.547Z,3.50
2022-12-08T12:24:06.668Z,3.50
2022-12-08T12:26:38.230Z,3.50
2022-12-08T12:29:27.836Z,3.50
2022-12-08T12:32:10.646Z,3.50
2022-12-08T12:34:49.149Z,3.60
2022-12-08T12:37:38.812Z,3.60
2022-12-08T12:40:21.367Z,3.50
2022-12-08T12:43:10.058Z,3.50
2022-12-08T12:45:45.068Z,3.60
2022-12-08T12:48:24.146Z,3.70
2022-12-08T12:50:52.490Z,3.80
2022-12-08T12:53:19.806Z,4.00
2022-12-08T12:55:53.529Z,4.00
2022-12-08T12:58:36.791Z,4.10
2022-12-08T13:01:13.560Z,4.10
2022-12-08T13:04:00.768Z,4.10
2022-12-08T13:06:40.947Z,4.10
2022-12-08T13:09:24.240Z,4.10
2022-12-08T13:11:57.905Z,4.10
2022-12-08T13:14:37.556Z,4.10
2022-12-08T13:17:10.271Z,4.10
2022-12-08T13:19:39.916Z,4.10
2022-12-08T13:22:45.208Z,4.00
2022-12-08T13:25:40.570Z,4.00
2022-12-08T13:28:19.108Z,4.10
2022-12-08T13:30:49.595Z,4.00
2022-12-08T13:33:27.346Z,4.00
2022-12-08T13:36:04.617Z,4.10
2022-12-08T13:38:37.097Z,4.00
2022-12-08T13:41:13.348Z,4.00
2022-12-08T13:58:36.767Z,3.70
2022-12-08T14:01:24.523Z,3.80
2022-12-08T14:06:49.886Z,3.90
2022-12-08T14:09:27.511Z,3.90
2022-12-08T14:12:06.716Z,3.90
2022-12-08T14:17:33.828Z,4.00
2022-12-08T14:20:14.387Z,4.00
2022-12-08T14:22:42.248Z,4.10
2022-12-08T14:25:15.496Z,4.00
2022-12-08T14:27:43.695Z,4.00
2022-12-08T14:30:14.471Z,4.00
2022-12-08T14:32:49.657Z,3.90
2022-12-08T14:35:29.446Z,3.90
2022-12-08T14:38:05.865Z,3.90
2022-12-08T14:40:38.214Z,3.80
2022-12-08T14:43:08.875Z,3.70
2022-12-08T14:45:45.327Z,3.70
2022-12-08T14:48:42.521Z,3.70
2022-12-08T14:51:21.639Z,3.70
2022-12-08T14:53:59.140Z,3.70
2022-12-08T14:56:34.067Z,3.70
2022-12-08T14:59:19.666Z,3.70
2022-12-08T15:01:50.041Z,3.70
2022-12-08T15:04:24.249Z,3.70
2022-12-08T15:06:57.391Z,3.70
2022-12-08T15:09:32.930Z,3.80
2022-12-08T15:12:24.703Z,3.70
2022-12-08T15:15:01.619Z,3.70
2022-12-08T15:17:45.119Z,3.60
2022-12-08T15:20:51.862Z,3.60
2022-12-08T15:23:29.797Z,3.60
2022-12-08T15:25:57.895Z,3.50
2022-12-08T15:28:29.979Z,3.50
2022-12-08T15:30:58.922Z,3.40
2022-12-08T15:33:26.967Z,3.50
2022-12-08T15:35:54.454Z,3.40
2022-12-08T15:38:27.527Z,3.40
2022-12-08T15:40:55.984Z,3.40
2022-12-08T15:43:23.731Z,3.40
2022-12-08T15:45:59.182Z,3.40
2022-12-08T15:48:30.106Z,3.40
2022-12-08T15:50:57.746Z,3.30
2022-12-08T15:53:25.074Z,3.30
2022-12-08T15:56:25.563Z,3.30
2022-12-08T15:58:56.414Z,3.30
2022-12-08T16:01:24.439Z,3.40
2022-12-08T16:09:40.497Z,3.40
2022-12-08T16:13:54.968Z,3.40
2022-12-08T16:15:55.221Z,3.40
2022-12-08T16:18:29.177Z,3.40
2022-12-08T16:23:45.266Z,3.30
2022-12-08T16:29:07.211Z,3.30
2022-12-08T16:31:34.909Z,3.30
2022-12-08T16:34:02.392Z,3.30
2022-12-08T16:36:29.765Z,3.30
2022-12-08T16:41:56.914Z,3.40
2022-12-08T16:44:24.243Z,3.40
2022-12-08T16:46:51.472Z,3.40
2022-12-08T16:49:18.833Z,3.40
2022-12-08T16:51:46.182Z,3.40
2022-12-08T16:54:13.502Z,3.40
2022-12-08T16:56:41.054Z,3.40
2022-12-08T16:59:08.425Z,3.40
2022-12-08T17:01:36.538Z,3.50
2022-12-08T17:06:53.123Z,3.60
2022-12-08T17:09:45.564Z,3.60
2022-12-08T17:12:18.851Z,3.60
2022-12-08T17:15:17.562Z,3.60
2022-12-08T17:17:54.233Z,3.70
2022-12-08T17:20:25.043Z,3.60
2022-12-08T17:22:57.941Z,3.70
2022-12-08T17:25:47.136Z,3.60
2022-12-08T17:28:58.291Z,3.60
2022-12-08T17:31:17.220Z,3.60
2022-12-08T17:33:44.740Z,3.60
2022-12-08T17:36:30.045Z,3.50
2022-12-08T17:39:18.074Z,3.50
2022-12-08T17:41:46.742Z,3.60
2022-12-08T17:44:16.757Z,3.60
2022-12-08T17:46:52.626Z,3.60
2022-12-08T17:49:30.945Z,3.60
2022-12-08T17:52:11.463Z,3.60
2022-12-08T17:54:39.444Z,3.60
2022-12-08T17:57:06.794Z,3.60
2022-12-08T17:59:34.122Z,3.70
2022-12-08T18:02:01.610Z,3.70
2022-12-08T18:07:10.565Z,3.70
2022-12-08T18:09:37.978Z,3.70
2022-12-08T18:12:05.604Z,3.70
2022-12-08T18:17:14.539Z,3.80
2022-12-08T18:19:41.857Z,3.80
2022-12-08T18:22:09.354Z,3.70
2022-12-08T18:24:36.735Z,3.80
2022-12-08T18:27:04.293Z,3.80
2022-12-08T18:29:31.652Z,3.80
2022-12-08T18:31:59.033Z,3.80
2022-12-08T18:34:26.372Z,3.80
2022-12-08T18:36:53.698Z,3.80
2022-12-08T18:39:26.702Z,3.80
2022-12-08T18:41:54.863Z,3.80
2022-12-08T18:44:22.169Z,3.90
2022-12-08T18:46:49.695Z,3.90
2022-12-08T18:49:23.016Z,3.90
2022-12-08T18:52:11.483Z,3.90
2022-12-08T18:57:32.005Z,3.90
2022-12-08T18:59:59.383Z,3.90
2022-12-08T19:02:26.627Z,3.90
2022-12-08T19:04:56.182Z,3.90
2022-12-08T19:07:23.543Z,3.90
2022-12-08T19:09:50.896Z,3.90
2022-12-08T19:12:30.152Z,3.90
2022-12-08T19:15:04.439Z,3.90
2022-12-08T19:17:31.934Z,3.90
2022-12-08T19:19:59.233Z,3.90
2022-12-08T19:25:25.336Z,3.90
2022-12-08T19:27:52.718Z,3.90
2022-12-08T19:30:32.486Z,3.90
2022-12-08T19:33:08.866Z,3.90
2022-12-08T19:35:39.321Z,3.90
2022-12-08T19:38:15.492Z,3.90
2022-12-08T19:41:13.138Z,3.90
2022-12-08T19:44:04.881Z,3.90
2022-12-08T19:46:41.616Z,3.90
2022-12-08T19:49:20.974Z,4.00
2022-12-08T19:51:48.330Z,4.00
2022-12-08T19:54:15.603Z,4.00
2022-12-08T19:56:43.372Z,4.00
2022-12-08T19:59:10.826Z,4.00
2022-12-08T20:01:38.924Z,4.00
2022-12-08T20:04:10.604Z,4.00
2022-12-08T20:06:40.863Z,4.00
2022-12-08T20:09:08.353Z,4.00
2022-12-08T20:11:35.733Z,4.00
2022-12-08T20:14:03.141Z,4.00
2022-12-08T20:16:30.516Z,4.00
2022-12-08T20:18:58.064Z,4.00
2022-12-08T20:21:25.465Z,4.00
2022-12-08T20:23:52.739Z,4.00
2022-12-08T20:26:22.097Z,4.00
2022-12-08T20:28:49.892Z,4.00
2022-12-08T20:31:20.014Z,4.00
2022-12-08T20:33:47.593Z,4.00
2022-12-08T20:36:18.903Z,4.10
2022-12-08T20:38:47.802Z,4.10
2022-12-08T20:41:16.327Z,4.10
2022-12-08T20:46:26.287Z,4.10
2022-12-08T20:48:53.708Z,4.10
2022-12-08T20:51:21.141Z,4.10
2022-12-08T20:53:48.451Z,4.00
2022-12-08T20:56:18.683Z,4.10
2022-12-08T20:58:46.392Z,4.00
2022-12-08T21:01:16.247Z,4.00
2022-12-08T21:03:45.368Z,4.00
2022-12-08T21:06:13.093Z,4.00
2022-12-08T21:08:41.945Z,4.00
2022-12-08T21:11:10.407Z,4.00
2022-12-08T21:13:39.423Z,4.00
2022-12-08T21:16:09.425Z,4.00
2022-12-08T21:18:49.230Z,4.00
2022-12-08T21:21:17.957Z,4.10
2022-12-08T21:23:45.594Z,4.10
2022-12-08T21:26:14.995Z,4.10
2022-12-08T21:28:43.030Z,4.00
2022-12-08T21:31:12.652Z,4.10
2022-12-08T21:33:40.608Z,4.00
2022-12-08T21:36:12.750Z,4.00
2022-12-08T21:38:41.194Z,4.10
2022-12-08T21:41:13.890Z,4.10
2022-12-08T21:43:41.763Z,4.10
2022-12-08T21:46:16.912Z,4.10
2022-12-08T21:48:44.917Z,4.10
2022-12-08T21:51:12.317Z,4.10
2022-12-08T21:53:39.879Z,4.10
2022-12-08T21:56:10.403Z,4.10
2022-12-08T21:58:39.821Z,4.10
2022-12-08T22:01:09.652Z,4.10
2022-12-08T22:03:38.686Z,4.10
2022-12-08T22:06:12.335Z,4.10
2022-12-08T22:08:40.703Z,4.10
2022-12-08T22:11:08.724Z,4.10
2022-12-08T22:13:41.764Z,4.10
2022-12-08T22:16:11.729Z,4.10
2022-12-08T22:18:39.354Z,4.10
2022-12-08T22:21:18.397Z,4.10
2022-12-08T22:23:46.087Z,4.10
2022-12-08T22:26:13.960Z,4.10
2022-12-08T22:28:43.028Z,4.10
2022-12-08T22:31:15.650Z,4.10
2022-12-08T22:33:43.618Z,4.10
2022-12-08T22:36:23.047Z,4.10
2022-12-08T22:38:51.415Z,4.10
2022-12-08T22:41:19.600Z,4.00
2022-12-08T22:43:48.017Z,4.00
2022-12-08T22:46:20.892Z,4.00
2022-12-08T22:48:49.094Z,4.00
2022-12-08T22:51:16.962Z,4.00
2022-12-08T22:53:45.047Z,4.00
2022-12-08T22:56:13.608Z,4.00
2022-12-08T22:58:43.145Z,3.90
2022-12-08T23:01:21.473Z,4.00
2022-12-08T23:03:49.033Z,4.00
2022-12-08T23:06:16.990Z,4.00
2022-12-08T23:08:45.442Z,4.00
2022-12-08T23:11:13.338Z,4.00
2022-12-08T23:16:22.777Z,4.00
2022-12-08T23:18:50.150Z,4.00
2022-12-08T23:21:19.391Z,4.00
2022-12-08T23:23:47.234Z,4.00
2022-12-08T23:26:20.990Z,4.00
2022-12-08T23:28:49.118Z,4.00
2022-12-08T23:31:17.080Z,4.00
2022-12-08T23:33:44.859Z,4.00
2022-12-08T23:36:14.282Z,4.00
2022-12-08T23:38:42.326Z,4.00
2022-12-08T23:41:12.327Z,4.00
2022-12-08T23:43:45.606Z,4.00
2022-12-08T23:46:14.010Z,4.00
2022-12-08T23:48:42.135Z,4.00
2022-12-08T23:51:10.102Z,4.00
2022-12-08T23:53:37.777Z,4.00
2022-12-08T23:56:10.680Z,4.10
2022-12-08T23:58:39.000Z,4.00
